Time;durP1;ratioP1;P1;durP2;ratioP2;P2;SDS_P1;SDS_P2;PMS_P1;PMS_P2;Temp;Humidity;BMP_temperature;BMP_pressure;BME280_temperature;BME280_humidity;BME280_pressure;Samples;Min_cycle;Max_cycle;Signal;HPM_P1;HPM_P2
2022/11/06 00:03:51;;;;;;;11.05;5.72;;;;;;;;;;20912574;28;20044;-57
2022/11/06 00:13:53;;;;;;;22.87;11.93;;;;;;;;;;20911048;28;20056;-56
2022/11/06 00:23:58;;;;;;;12.10;6.35;;;;;;;;;;20942893;28;20396;-57
2022/11/06 00:34:00;;;;;;;9.23;4.55;;;;;;;;;;21168829;28;20087;-55
2022/11/06 00:44:02;;;;;;;11.80;6.10;;;;;;;;;;21168473;28;20389;-58
2022/11/06 00:54:06;;;;;;;8.82;5.97;;;;;;;;;;21167023;28;20415;-57
2022/11/06 01:04:16;;;;;;;12.27;5.77;;;;;;;;;;21166225;28;20047;-57
2022/11/06 01:14:20;;;;;;;10.52;4.60;;;;;;;;;;21166027;28;20079;-58
2022/11/06 01:24:24;;;;;;;8.45;5.68;;;;;;;;;;21164747;28;20134;-56
2022/11/06 01:34:26;;;;;;;8.65;4.50;;;;;;;;;;21164013;28;20511;-55
2022/11/06 01:44:31;;;;;;;10.90;5.18;;;;;;;;;;21163621;28;20450;-57
2022/11/06 01:54:34;;;;;;;7.10;4.55;;;;;;;;;;21164016;28;20388;-57
2022/11/06 02:04:49;;;;;;;8.15;4.78;;;;;;;;;;21163439;28;20134;-58
2022/11/06 02:15:01;;;;;;;12.20;5.05;;;;;;;;;;21162786;28;20044;-57
2022/11/06 02:25:21;;;;;;;8.43;4.63;;;;;;;;;;21162788;28;20444;-58
2022/11/06 02:35:31;;;;;;;11.02;5.95;;;;;;;;;;21161352;28;20093;-55
2022/11/06 02:46:04;;;;;;;7.70;5.10;;;;;;;;;;21162172;28;20138;-57
2022/11/06 02:56:22;;;;;;;8.25;5.50;;;;;;;;;;20752915;28;20054;-56
2022/11/06 03:06:48;;;;;;;9.25;5.82;;;;;;;;;;20751978;28;20141;-58
2022/11/06 03:17:20;;;;;;;9.73;6.25;;;;;;;;;;20750948;28;20046;-55
2022/11/06 03:27:50;;;;;;;7.78;4.85;;;;;;;;;;20892626;28;20117;-56
2022/11/06 03:38:05;;;;;;;20.13;5.93;;;;;;;;;;20749588;28;20084;-57
2022/11/06 03:48:18;;;;;;;5.72;4.80;;;;;;;;;;20748059;28;20093;-57
2022/11/06 03:58:25;;;;;;;10.50;5.18;;;;;;;;;;20747976;28;20127;-57
2022/11/06 04:18:57;;;;;;;6.77;4.40;;;;;;;;;;21171421;28;20549;-55
2022/11/06 04:28:59;;;;;;;7.93;5.18;;;;;;;;;;21169138;28;20087;-58
2022/11/06 04:39:20;;;;;;;9.73;4.93;;;;;;;;;;21167816;28;20050;-56
2022/11/06 04:49:26;;;;;;;7.82;4.93;;;;;;;;;;21165944;28;20048;-59
2022/11/06 04:59:30;;;;;;;7.20;5.03;;;;;;;;;;21166190;28;20105;-59
2022/11/06 05:09:33;;;;;;;9.02;5.30;;;;;;;;;;21166155;28;20377;-60
2022/11/06 05:19:35;;;;;;;6.95;4.60;;;;;;;;;;21164882;28;20196;-57
2022/11/06 05:29:37;;;;;;;11.20;5.85;;;;;;;;;;21164010;28;20138;-57
2022/11/06 05:39:39;;;;;;;9.82;5.53;;;;;;;;;;21164133;28;20052;-58
2022/11/06 05:49:41;;;;;;;9.50;4.95;;;;;;;;;;21162942;28;20063;-55
2022/11/06 05:59:43;;;;;;;9.25;4.60;;;;;;;;;;21163745;28;20053;-57
2022/11/06 06:09:45;;;;;;;7.05;4.10;;;;;;;;;;21164875;28;20460;-57
2022/11/06 06:19:47;;;;;;;8.15;4.18;;;;;;;;;;21163053;28;20081;-59
2022/11/06 06:29:50;;;;;;;7.28;4.03;;;;;;;;;;21178965;28;20491;-57
2022/11/06 06:39:52;;;;;;;7.78;4.15;;;;;;;;;;21178302;28;20054;-57
2022/11/06 06:49:55;;;;;;;6.28;4.28;;;;;;;;;;21177623;28;20055;-58
2022/11/06 06:59:58;;;;;;;6.70;4.40;;;;;;;;;;21177272;28;20044;-59
2022/11/06 07:10:00;;;;;;;14.27;4.82;;;;;;;;;;21175689;28;20138;-60
2022/11/06 07:20:03;;;;;;;6.68;4.18;;;;;;;;;;21174949;28;20047;-56
2022/11/06 07:30:05;;;;;;;6.75;4.97;;;;;;;;;;21175092;28;20134;-56
2022/11/06 07:40:08;;;;;;;6.82;4.68;;;;;;;;;;21173243;28;20047;-57
2022/11/06 07:50:10;;;;;;;7.85;4.75;;;;;;;;;;21172484;28;20472;-58
2022/11/06 08:00:12;;;;;;;7.15;4.70;;;;;;;;;;21172150;28;20092;-59
2022/11/06 08:10:14;;;;;;;11.27;6.40;;;;;;;;;;21171331;28;20055;-59
2022/11/06 08:20:18;;;;;;;9.57;5.50;;;;;;;;;;21169767;28;20039;-58
2022/11/06 08:30:21;;;;;;;9.90;5.60;;;;;;;;;;21169015;28;20051;-58
2022/11/06 08:40:23;;;;;;;10.30;6.20;;;;;;;;;;21168429;28;20088;-59
2022/11/06 08:50:25;;;;;;;11.85;7.10;;;;;;;;;;21167600;28;20059;-59
2022/11/06 09:00:29;;;;;;;14.05;5.45;;;;;;;;;;21167296;28;20052;-59
2022/11/06 09:10:31;;;;;;;9.95;6.70;;;;;;;;;;21165576;28;20093;-57
2022/11/06 09:20:34;;;;;;;11.25;6.35;;;;;;;;;;21165278;28;20104;-58
2022/11/06 09:30:37;;;;;;;10.45;6.53;;;;;;;;;;21165784;28;20051;-57
2022/11/06 09:40:57;;;;;;;8.45;6.70;;;;;;;;;;21164781;28;20400;-59
2022/11/06 09:51:19;;;;;;;11.35;6.15;;;;;;;;;;21162776;28;20112;-57
2022/11/06 10:01:23;;;;;;;11.25;5.90;;;;;;;;;;21146127;28;20105;-57
2022/11/06 10:11:29;;;;;;;7.70;5.43;;;;;;;;;;21162044;28;20074;-58
2022/11/06 10:21:34;;;;;;;11.95;6.28;;;;;;;;;;21161732;28;20044;-56
2022/11/06 10:31:37;;;;;;;11.05;6.30;;;;;;;;;;21160884;28;20157;-57
2022/11/06 10:41:40;;;;;;;10.18;5.20;;;;;;;;;;21161213;28;20119;-56
2022/11/06 10:52:01;;;;;;;13.40;6.60;;;;;;;;;;21160082;28;20052;-58
2022/11/06 11:02:04;;;;;;;9.75;6.55;;;;;;;;;;21161594;28;20475;-59
2022/11/06 11:12:40;;;;;;;11.27;7.07;;;;;;;;;;21168237;28;20119;-58
2022/11/06 11:22:43;;;;;;;12.57;7.68;;;;;;;;;;20750460;28;20332;-57
2022/11/06 11:32:47;;;;;;;14.38;9.05;;;;;;;;;;20749593;28;20076;-58
2022/11/06 11:42:51;;;;;;;13.25;8.13;;;;;;;;;;20732911;28;20505;-59
2022/11/06 11:52:55;;;;;;;13.02;7.57;;;;;;;;;;20892971;28;20377;-59
2022/11/06 12:03:02;;;;;;;22.43;12.57;;;;;;;;;;21170883;28;20052;-57
2022/11/06 12:13:05;;;;;;;13.85;9.07;;;;;;;;;;21170787;28;20047;-57
2022/11/06 12:23:11;;;;;;;15.70;9.18;;;;;;;;;;21168899;28;20087;-58
2022/11/06 12:33:19;;;;;;;9.32;6.53;;;;;;;;;;21169545;28;20411;-57
2022/11/06 12:43:23;;;;;;;9.45;5.55;;;;;;;;;;21169223;28;20054;-57
2022/11/06 12:53:37;;;;;;;11.57;7.30;;;;;;;;;;21167884;28;20048;-57
2022/11/06 13:03:46;;;;;;;10.15;6.28;;;;;;;;;;21165274;28;20096;-57
2022/11/06 13:14:06;;;;;;;9.48;6.93;;;;;;;;;;21146923;28;20047;-56
2022/11/06 13:24:13;;;;;;;9.30;5.70;;;;;;;;;;21165552;28;20059;-59
2022/11/06 13:34:35;;;;;;;6.70;4.70;;;;;;;;;;21163188;28;20055;-58
2022/11/06 13:44:36;;;;;;;10.55;4.70;;;;;;;;;;21163800;28;20044;-58
2022/11/06 13:54:41;;;;;;;8.60;5.43;;;;;;;;;;21163771;28;20044;-60
2022/11/06 14:04:52;;;;;;;7.22;5.10;;;;;;;;;;21162452;28;20052;-57
2022/11/06 14:15:16;;;;;;;8.75;5.40;;;;;;;;;;21162286;28;20130;-58
2022/11/06 14:25:28;;;;;;;8.57;5.32;;;;;;;;;;21161745;28;20040;-58
2022/11/06 14:35:48;;;;;;;6.07;4.03;;;;;;;;;;21161329;28;20201;-56
2022/11/06 14:46:10;;;;;;;8.32;4.93;;;;;;;;;;21168742;28;20043;-60
2022/11/06 14:56:12;;;;;;;5.45;3.67;;;;;;;;;;21159429;28;20048;-59
2022/11/06 15:06:16;;;;;;;5.47;3.22;;;;;;;;;;21176406;28;20051;-61
2022/11/06 15:16:20;;;;;;;5.82;3.60;;;;;;;;;;21175716;28;20054;-58
2022/11/06 15:26:25;;;;;;;4.55;2.72;;;;;;;;;;21174599;28;20497;-58
2022/11/06 15:36:28;;;;;;;4.43;2.55;;;;;;;;;;21173910;28;20387;-56
2022/11/06 15:46:31;;;;;;;5.57;2.47;;;;;;;;;;21172468;28;20047;-56
2022/11/06 15:56:34;;;;;;;5.28;2.45;;;;;;;;;;21170339;28;20560;-58
2022/11/06 16:06:38;;;;;;;5.20;2.22;;;;;;;;;;21172147;28;20047;-56
2022/11/06 16:16:43;;;;;;;6.55;4.65;;;;;;;;;;21170744;28;20075;-56
2022/11/06 16:26:48;;;;;;;8.75;5.18;;;;;;;;;;21169454;28;20043;-57
2022/11/06 16:36:53;;;;;;;6.38;3.17;;;;;;;;;;21168572;28;20051;-58
2022/11/06 16:47:04;;;;;;;5.05;3.25;;;;;;;;;;21167519;28;20140;-59
2022/11/06 16:57:10;;;;;;;6.10;2.78;;;;;;;;;;21166437;28;20040;-56
2022/11/06 17:07:22;;;;;;;5.38;2.40;;;;;;;;;;21165203;28;20129;-58
2022/11/06 17:17:25;;;;;;;4.10;2.60;;;;;;;;;;21166399;28;20472;-57
2022/11/06 17:27:28;;;;;;;8.27;4.05;;;;;;;;;;21164715;28;20051;-57
2022/11/06 17:37:30;;;;;;;6.55;3.75;;;;;;;;;;21164315;28;20404;-58
2022/11/06 17:47:32;;;;;;;8.60;3.92;;;;;;;;;;21163678;28;20507;-59
2022/11/06 17:57:35;;;;;;;8.98;3.28;;;;;;;;;;21163641;28;20079;-58
2022/11/06 18:07:38;;;;;;;7.67;3.70;;;;;;;;;;21162910;28;20388;-56
2022/11/06 18:17:41;;;;;;;8.75;3.67;;;;;;;;;;21165272;28;20047;-58
2022/11/06 18:27:43;;;;;;;7.13;3.97;;;;;;;;;;21179155;28;20047;-57
2022/11/06 18:37:45;;;;;;;8.07;3.90;;;;;;;;;;21177966;28;20104;-57
2022/11/06 18:47:47;;;;;;;8.02;4.10;;;;;;;;;;21177563;28;20078;-57
2022/11/06 18:57:49;;;;;;;6.85;3.85;;;;;;;;;;21177760;28;20512;-58
2022/11/06 19:07:51;;;;;;;6.95;4.10;;;;;;;;;;21176110;28;20096;-56
2022/11/06 19:17:53;;;;;;;9.18;4.70;;;;;;;;;;21176037;28;20479;-56
2022/11/06 19:27:55;;;;;;;7.80;3.80;;;;;;;;;;21172984;28;20053;-56
2022/11/06 19:37:57;;;;;;;9.05;4.25;;;;;;;;;;21155924;28;20411;-55
2022/11/06 19:47:59;;;;;;;7.88;4.63;;;;;;;;;;21171884;28;20066;-56
2022/11/06 19:58:01;;;;;;;8.23;3.75;;;;;;;;;;21171774;28;20054;-57
2022/11/06 20:08:03;;;;;;;19.38;12.43;;;;;;;;;;21171101;28;20423;-57
2022/11/06 20:18:05;;;;;;;18.42;11.07;;;;;;;;;;21169830;28;20058;-57
2022/11/06 20:28:07;;;;;;;7.93;5.40;;;;;;;;;;21169451;28;20116;-59
2022/11/06 20:38:09;;;;;;;10.68;5.75;;;;;;;;;;21168792;28;20058;-57
2022/11/06 20:48:11;;;;;;;9.52;5.53;;;;;;;;;;21168048;28;20043;-59
2022/11/06 20:58:13;;;;;;;10.35;5.93;;;;;;;;;;21168115;28;20122;-57
2022/11/06 21:08:15;;;;;;;10.10;6.15;;;;;;;;;;21166369;28;20518;-58
2022/11/06 21:18:17;;;;;;;15.15;7.55;;;;;;;;;;21166304;28;20092;-56
2022/11/06 21:28:19;;;;;;;12.65;8.80;;;;;;;;;;21165340;28;20048;-57
2022/11/06 21:38:21;;;;;;;16.38;9.77;;;;;;;;;;21164385;28;20514;-56
2022/11/06 21:48:23;;;;;;;15.73;9.95;;;;;;;;;;21164445;28;20112;-57
2022/11/06 21:58:25;;;;;;;13.45;10.00;;;;;;;;;;21163435;28;20051;-57
2022/11/06 22:08:26;;;;;;;14.57;8.73;;;;;;;;;;21162759;28;20130;-58
2022/11/06 22:18:28;;;;;;;85.50;34.83;;;;;;;;;;21162142;28;20047;-58
2022/11/06 22:28:31;;;;;;;67.35;30.10;;;;;;;;;;21162329;28;20544;-57
2022/11/06 22:38:33;;;;;;;16.67;9.63;;;;;;;;;;21161750;28;20128;-59
2022/11/06 22:48:35;;;;;;;15.55;8.70;;;;;;;;;;21160845;28;20081;-58
2022/11/06 22:58:37;;;;;;;11.65;6.70;;;;;;;;;;21161050;28;20457;-58
2022/11/06 23:08:39;;;;;;;10.45;6.10;;;;;;;;;;21171371;28;20048;-57
2022/11/06 23:18:41;;;;;;;9.20;6.10;;;;;;;;;;21176295;28;20404;-56
2022/11/06 23:28:43;;;;;;;9.15;5.50;;;;;;;;;;21174052;28;20055;-57
2022/11/06 23:38:45;;;;;;;9.68;4.75;;;;;;;;;;21174759;28;20092;-56
2022/11/06 23:48:47;;;;;;;10.82;5.43;;;;;;;;;;21173452;28;20105;-56
2022/11/06 23:58:49;;;;;;;10.23;5.32;;;;;;;;;;21172627;28;20050;-57
